createdAt,value
2023-02-19T00:02:17.941Z,101625.13
2023-02-19T00:04:44.733Z,101637.47
2023-02-19T00:07:11.412Z,101637.53
2023-02-19T00:09:38.401Z,101656.66
2023-02-19T00:12:05.440Z,101645.69
2023-02-19T00:14:32.257Z,101633.63
2023-02-19T00:16:59.132Z,101628.59
2023-02-19T00:19:26.321Z,101640.06
2023-02-19T00:21:53.871Z,101635.16
2023-02-19T00:24:21.618Z,101630.41
2023-02-19T00:26:49.132Z,101630.22
2023-02-19T00:29:20.757Z,101629.22
2023-02-19T00:31:47.887Z,101630.56
2023-02-19T00:34:15.078Z,101632.53
2023-02-19T00:36:42.872Z,101632.22
2023-02-19T00:39:14.133Z,101635.97
2023-02-19T00:41:41.356Z,101634.25
2023-02-19T00:44:08.730Z,101632.59
2023-02-19T00:46:38.447Z,101632.28
2023-02-19T00:49:06.728Z,101632.63
2023-02-19T00:51:35.983Z,101626.38
2023-02-19T00:54:03.627Z,101632.16
2023-02-19T00:56:30.342Z,101629.53
2023-02-19T00:58:57.758Z,101623.47
2023-02-19T01:01:24.992Z,101632.03
2023-02-19T01:03:52.022Z,101625.97
2023-02-19T01:06:19.838Z,101620.16
2023-02-19T01:08:47.807Z,101637.19
2023-02-19T01:11:15.768Z,101638.34
2023-02-19T01:13:43.400Z,101653.25
2023-02-19T01:16:14.918Z,101647.22
2023-02-19T01:18:42.364Z,101649.19
2023-02-19T01:21:13.606Z,101646.13
2023-02-19T01:23:40.811Z,101662.34
2023-02-19T01:26:10.912Z,101655.34
2023-02-19T01:28:38.049Z,101656.53
2023-02-19T01:31:07.056Z,101656.38
2023-02-19T01:33:34.291Z,101660.69
2023-02-19T01:36:03.879Z,101667.97
2023-02-19T01:38:30.979Z,101661.66
2023-02-19T01:41:06.004Z,101668.91
2023-02-19T01:43:55.494Z,101661.00
2023-02-19T01:46:26.417Z,101669.81
2023-02-19T01:48:54.493Z,101674.28
2023-02-19T01:51:21.952Z,101666.72
2023-02-19T01:53:55.391Z,101679.75
2023-02-19T01:56:24.023Z,101676.50
2023-02-19T01:58:50.974Z,101670.91
2023-02-19T02:01:18.245Z,101673.50
2023-02-19T02:03:48.818Z,101664.25
2023-02-19T02:06:25.485Z,101674.28
2023-02-19T02:09:13.746Z,101672.09
2023-02-19T02:11:43.910Z,101668.84
2023-02-19T02:14:10.792Z,101673.06
2023-02-19T02:16:59.012Z,101667.59
2023-02-19T02:19:59.680Z,101676.66
2023-02-19T02:22:35.535Z,101659.34
2023-02-19T02:25:11.350Z,101680.13
2023-02-19T02:27:39.618Z,101668.50
2023-02-19T02:30:13.040Z,101671.16
2023-02-19T02:32:53.463Z,101675.22
2023-02-19T02:35:24.958Z,101678.19
2023-02-19T02:37:56.068Z,101682.09
2023-02-19T02:40:22.868Z,101686.84
2023-02-19T02:42:50.330Z,101679.44
2023-02-19T02:45:35.279Z,101685.03
2023-02-19T02:48:12.639Z,101678.25
2023-02-19T02:50:54.406Z,101677.47
2023-02-19T02:54:03.258Z,101688.28
2023-02-19T02:56:31.150Z,101688.28
2023-02-19T02:58:59.428Z,101687.94
2023-02-19T03:01:51.892Z,101688.28
2023-02-19T03:05:00.472Z,101695.31
2023-02-19T03:07:31.220Z,101690.28
2023-02-19T03:10:00.676Z,101697.41
2023-02-19T03:12:48.065Z,101698.81
2023-02-19T03:15:35.005Z,101692.84
2023-02-19T03:18:26.214Z,101707.50
2023-02-19T03:20:55.813Z,101702.69
2023-02-19T03:23:46.866Z,101698.81
2023-02-19T03:26:15.354Z,101713.22
2023-02-19T03:29:08.846Z,101711.84
2023-02-19T03:31:38.956Z,101708.50
2023-02-19T03:34:09.980Z,101713.81
2023-02-19T03:36:46.792Z,101718.63
2023-02-19T03:39:16.336Z,101723.63
2023-02-19T03:41:55.802Z,101723.78
2023-02-19T03:44:48.989Z,101721.19
2023-02-19T03:47:21.181Z,101723.75
2023-02-19T03:49:55.654Z,101728.91
2023-02-19T03:52:38.155Z,101737.63
2023-02-19T03:55:12.642Z,101735.75
2023-02-19T03:57:54.142Z,101740.78
2023-02-19T04:00:40.847Z,101748.41
2023-02-19T04:03:31.022Z,101741.38
2023-02-19T04:06:10.091Z,101751.63
2023-02-19T04:08:40.344Z,101748.78
2023-02-19T04:11:08.354Z,101758.19
2023-02-19T04:13:43.389Z,101759.06
2023-02-19T04:16:14.058Z,101761.78
2023-02-19T04:18:44.373Z,101764.91
2023-02-19T04:21:12.065Z,101765.66
2023-02-19T04:23:41.896Z,101783.72
2023-02-19T04:26:10.007Z,101773.47
2023-02-19T04:28:38.361Z,101777.09
2023-02-19T04:31:06.430Z,101777.69
2023-02-19T04:33:33.285Z,101772.38
2023-02-19T04:36:00.170Z,101777.31
2023-02-19T04:38:27.042Z,101782.28
2023-02-19T04:40:54.214Z,101786.44
2023-02-19T04:43:20.944Z,101788.03
2023-02-19T04:45:47.857Z,101787.75
2023-02-19T04:48:14.934Z,101790.13
2023-02-19T04:50:41.894Z,101794.81
2023-02-19T04:53:08.750Z,101793.16
2023-02-19T04:55:39.496Z,101793.88
2023-02-19T04:58:06.272Z,101801.13
2023-02-19T05:00:34.227Z,101804.34
2023-02-19T05:03:01.493Z,101799.81
2023-02-19T05:05:28.325Z,101803.16
2023-02-19T05:07:56.257Z,101800.66
2023-02-19T05:10:23.098Z,101804.88
2023-02-19T05:12:49.882Z,101801.03
2023-02-19T05:15:16.656Z,101811.59
2023-02-19T05:17:43.572Z,101813.38
2023-02-19T05:20:10.547Z,101811.00
2023-02-19T05:22:37.592Z,101815.66
2023-02-19T05:25:04.656Z,101827.81
2023-02-19T05:27:31.635Z,101825.47
2023-02-19T05:29:58.445Z,101830.75
2023-02-19T05:32:25.336Z,101830.72
2023-02-19T05:34:52.474Z,101850.34
2023-02-19T05:37:19.383Z,101846.13
2023-02-19T05:39:46.274Z,101849.44
2023-02-19T05:42:14.829Z,101849.47
2023-02-19T05:44:42.428Z,101849.34
2023-02-19T05:47:09.340Z,101856.63
2023-02-19T05:49:36.897Z,101850.66
2023-02-19T05:52:04.013Z,101859.00
2023-02-19T05:54:31.687Z,101863.75
2023-02-19T05:56:58.557Z,101865.91
2023-02-19T05:59:26.724Z,101865.63
2023-02-19T06:01:55.119Z,101872.84
2023-02-19T06:04:22.203Z,101879.44
2023-02-19T06:06:49.338Z,101879.06
2023-02-19T06:09:16.375Z,101884.09
2023-02-19T06:11:43.744Z,101883.38
2023-02-19T06:14:13.255Z,101883.09
2023-02-19T06:16:40.161Z,101881.66
2023-02-19T06:19:06.939Z,101884.75
2023-02-19T06:21:33.726Z,101891.31
2023-02-19T06:24:05.237Z,101891.69
2023-02-19T06:26:32.087Z,101904.50
2023-02-19T06:28:59.906Z,101903.63
2023-02-19T06:31:26.920Z,101895.91
2023-02-19T06:33:55.187Z,101885.34
2023-02-19T06:36:22.975Z,101899.47
2023-02-19T06:38:50.392Z,101892.03
2023-02-19T06:41:17.404Z,101907.56
2023-02-19T06:43:44.175Z,101909.59
2023-02-19T06:46:12.432Z,101900.06
2023-02-19T06:48:40.730Z,101892.31
2023-02-19T06:51:07.686Z,101898.47
2023-02-19T06:53:34.609Z,101898.59
2023-02-19T06:56:34.342Z,101905.44
2023-02-19T06:59:03.028Z,101915.09
2023-02-19T07:01:31.353Z,101904.22
2023-02-19T07:03:58.528Z,101910.69
2023-02-19T07:06:26.246Z,101916.81
2023-02-19T07:08:55.526Z,101923.13
2023-02-19T07:11:23.121Z,101925.56
2023-02-19T07:14:03.848Z,101926.16
2023-02-19T07:16:30.947Z,101934.28
2023-02-19T07:18:59.430Z,101942.78
2023-02-19T07:21:26.790Z,101935.97
2023-02-19T07:23:53.846Z,101947.22
2023-02-19T07:26:21.941Z,101948.31
2023-02-19T07:28:50.205Z,101953.22
2023-02-19T07:31:19.162Z,101953.81
2023-02-19T07:33:46.970Z,101956.34
2023-02-19T07:36:15.853Z,101952.44
2023-02-19T07:38:42.576Z,101958.69
2023-02-19T07:41:09.708Z,101968.34
2023-02-19T07:43:37.865Z,101964.94
2023-02-19T07:46:07.218Z,101975.00
2023-02-19T07:48:35.671Z,101964.19
2023-02-19T07:51:04.481Z,101978.31
2023-02-19T07:53:31.384Z,101981.31
2023-02-19T07:56:03.061Z,101978.56
2023-02-19T07:58:30.331Z,101989.69
2023-02-19T08:00:57.824Z,101984.00
2023-02-19T08:03:24.859Z,101992.28
2023-02-19T08:05:53.877Z,101988.06
2023-02-19T08:08:20.768Z,102001.25
2023-02-19T08:11:06.334Z,102006.94
2023-02-19T08:13:34.257Z,102018.59
2023-02-19T08:16:16.988Z,102016.06
2023-02-19T08:18:47.004Z,102026.84
2023-02-19T08:21:14.230Z,102031.53
2023-02-19T08:23:41.128Z,102036.91
2023-02-19T08:26:08.625Z,102041.44
2023-02-19T08:28:36.487Z,102044.16
2023-02-19T08:31:05.918Z,102048.63
2023-02-19T08:33:34.485Z,102053.97
2023-02-19T08:36:06.500Z,102060.53
2023-02-19T08:38:49.228Z,102061.13
2023-02-19T08:41:16.251Z,102062.13
2023-02-19T08:43:43.383Z,102064.97
2023-02-19T08:46:13.961Z,102070.63
2023-02-19T08:48:41.219Z,102082.31
2023-02-19T08:51:10.816Z,102080.19
2023-02-19T08:53:39.313Z,102090.59
2023-02-19T08:56:11.299Z,102091.13
2023-02-19T08:58:38.763Z,102090.63
2023-02-19T09:01:13.998Z,102093.69
2023-02-19T09:03:41.547Z,102104.31
2023-02-19T09:06:13.907Z,102092.97
2023-02-19T09:08:40.857Z,102098.19
2023-02-19T09:11:07.554Z,102100.03
2023-02-19T09:13:34.411Z,102097.31
2023-02-19T09:16:03.498Z,102093.91
2023-02-19T09:18:30.584Z,102085.06
2023-02-19T09:21:04.626Z,102100.66
2023-02-19T09:23:35.854Z,102101.31
2023-02-19T09:26:06.840Z,102104.25
2023-02-19T09:28:33.882Z,102104.44
2023-02-19T09:31:08.489Z,102118.22
2023-02-19T09:33:35.786Z,102116.16
2023-02-19T09:36:03.122Z,102111.47
2023-02-19T09:38:31.004Z,102119.13
2023-02-19T09:40:58.153Z,102105.06
2023-02-19T09:43:26.849Z,102102.22
2023-02-19T09:46:02.843Z,102113.41
2023-02-19T09:48:30.515Z,102107.50
2023-02-19T09:50:58.451Z,102110.28
2023-02-19T09:53:27.604Z,102099.19
2023-02-19T09:55:54.445Z,102111.25
2023-02-19T09:58:31.388Z,102111.50
2023-02-19T10:01:01.502Z,102118.78
2023-02-19T10:03:38.463Z,102120.22
2023-02-19T10:06:10.131Z,102127.25
2023-02-19T10:08:40.415Z,102127.41
2023-02-19T10:11:07.538Z,102133.72
2023-02-19T10:13:46.644Z,102129.22
2023-02-19T10:16:20.440Z,102134.66
2023-02-19T10:18:47.616Z,102137.72
2023-02-19T10:21:19.891Z,102139.97
2023-02-19T10:23:50.744Z,102138.16
2023-02-19T10:26:17.723Z,102143.44
2023-02-19T10:28:45.145Z,102154.44
2023-02-19T10:31:21.715Z,102155.13
2023-02-19T10:33:49.726Z,102148.56
2023-02-19T10:36:32.611Z,102153.47
2023-02-19T10:39:00.841Z,102161.53
2023-02-19T10:41:27.894Z,102166.41
2023-02-19T10:44:15.764Z,102156.41
2023-02-19T10:46:46.213Z,102165.50
2023-02-19T10:49:36.071Z,102185.47
2023-02-19T10:52:19.411Z,102191.75
2023-02-19T10:54:50.542Z,102202.13
2023-02-19T10:57:25.811Z,102190.53
2023-02-19T11:00:23.187Z,102200.19
2023-02-19T11:02:50.161Z,102206.88
2023-02-19T11:05:20.349Z,102200.31
2023-02-19T11:07:53.616Z,102212.44
2023-02-19T11:10:26.968Z,102217.16
2023-02-19T11:12:59.569Z,102212.88
2023-02-19T11:15:34.625Z,102217.28
2023-02-19T11:18:08.409Z,102213.50
2023-02-19T11:20:35.705Z,102207.84
2023-02-19T11:23:14.563Z,102210.53
2023-02-19T11:25:49.513Z,102219.56
2023-02-19T11:28:32.627Z,102216.22
2023-02-19T11:31:19.730Z,102216.28
2023-02-19T11:34:14.305Z,102219.63
2023-02-19T11:36:42.480Z,102220.16
2023-02-19T11:39:15.612Z,102219.88
2023-02-19T11:41:45.332Z,102222.47
2023-02-19T11:44:17.910Z,102223.44
2023-02-19T11:47:06.442Z,102218.84
2023-02-19T11:49:49.099Z,102219.91
2023-02-19T11:52:34.022Z,102217.44
2023-02-19T11:55:03.949Z,102211.59
2023-02-19T11:57:47.773Z,102218.31
2023-02-19T12:00:17.658Z,102214.22
2023-02-19T12:03:02.022Z,102211.31
2023-02-19T12:05:50.262Z,102211.06
2023-02-19T12:08:41.463Z,102203.22
2023-02-19T12:11:24.900Z,102190.13
2023-02-19T12:14:29.305Z,102177.16
2023-02-19T12:17:02.171Z,102183.66
2023-02-19T12:20:10.675Z,102173.78
2023-02-19T12:23:01.793Z,102179.31
2023-02-19T12:25:40.179Z,102180.75
2023-02-19T12:28:23.454Z,102184.06
2023-02-19T12:31:33.029Z,102178.38
2023-02-19T12:34:18.148Z,102175.88
2023-02-19T12:37:06.696Z,102185.50
2023-02-19T12:39:44.786Z,102178.00
2023-02-19T12:42:15.585Z,102180.84
2023-02-19T12:44:52.619Z,102189.03
2023-02-19T12:47:25.056Z,102191.13
2023-02-19T12:50:05.011Z,102196.97
2023-02-19T12:52:36.445Z,102194.63
2023-02-19T12:55:23.785Z,102196.94
2023-02-19T12:57:51.763Z,102205.72
2023-02-19T13:00:50.605Z,102213.84
2023-02-19T13:03:34.094Z,102215.03
2023-02-19T13:06:12.667Z,102219.81
2023-02-19T13:09:06.713Z,102232.09
2023-02-19T13:11:38.902Z,102225.25
2023-02-19T13:14:31.454Z,102244.25
2023-02-19T13:17:01.875Z,102238.66
2023-02-19T13:19:31.034Z,102241.16
2023-02-19T13:22:33.404Z,102227.63
2023-02-19T13:25:01.356Z,102223.78
2023-02-19T13:27:35.834Z,102228.06
2023-02-19T13:30:11.566Z,102226.06
2023-02-19T13:33:16.888Z,102240.25
2023-02-19T13:35:49.766Z,102235.56
2023-02-19T13:38:17.074Z,102246.06
2023-02-19T13:40:54.276Z,102252.41
2023-02-19T13:43:26.110Z,102258.25
2023-02-19T13:46:22.611Z,102252.28
2023-02-19T13:49:28.061Z,102260.16
2023-02-19T13:51:55.820Z,102256.59
2023-02-19T13:54:33.483Z,102270.72
2023-02-19T13:57:22.611Z,102263.78
2023-02-19T13:59:53.489Z,102262.44
2023-02-19T14:02:23.841Z,102256.88
2023-02-19T14:05:02.355Z,102248.44
2023-02-19T14:07:52.813Z,102259.16
2023-02-19T14:10:57.945Z,102267.63
2023-02-19T14:13:46.406Z,102277.91
2023-02-19T14:16:35.291Z,102281.44
2023-02-19T14:19:02.148Z,102294.00
2023-02-19T14:21:37.137Z,102285.81
2023-02-19T14:24:04.606Z,102285.25
2023-02-19T14:26:33.085Z,102281.91
2023-02-19T14:29:01.232Z,102275.78
2023-02-19T14:31:32.644Z,102293.03
2023-02-19T14:34:00.563Z,102290.94
2023-02-19T14:36:39.877Z,102305.97
2023-02-19T14:39:13.100Z,102309.53
2023-02-19T14:41:42.493Z,102313.72
2023-02-19T14:44:21.989Z,102333.47
2023-02-19T14:47:03.274Z,102329.38
2023-02-19T14:49:31.459Z,102331.06
2023-02-19T14:52:05.246Z,102325.91
2023-02-19T14:55:00.500Z,102329.19
2023-02-19T14:57:38.584Z,102330.66
2023-02-19T15:00:21.761Z,102332.19
2023-02-19T15:02:51.023Z,102338.16
2023-02-19T15:05:21.595Z,102345.81
2023-02-19T15:07:48.798Z,102318.03
2023-02-19T15:10:16.723Z,102320.06
2023-02-19T15:12:50.195Z,102309.75
2023-02-19T15:15:20.723Z,102323.47
2023-02-19T15:17:47.822Z,102324.56
2023-02-19T15:20:20.850Z,102321.97
2023-02-19T15:22:47.791Z,102313.22
2023-02-19T15:25:19.911Z,102316.13
2023-02-19T15:27:47.184Z,102315.03
2023-02-19T15:30:33.631Z,102299.44
2023-02-19T15:33:00.889Z,102296.41
2023-02-19T15:35:35.239Z,102310.25
2023-02-19T15:38:02.190Z,102304.28
2023-02-19T15:40:30.954Z,102304.53
2023-02-19T15:42:59.329Z,102308.22
2023-02-19T15:45:41.618Z,102289.91
2023-02-19T15:48:14.501Z,102279.06
2023-02-19T15:50:46.415Z,102282.41
2023-02-19T15:53:18.091Z,102276.72
2023-02-19T15:55:59.190Z,102280.28
2023-02-19T15:58:31.615Z,102285.47
2023-02-19T16:01:03.274Z,102289.06
2023-02-19T16:03:31.228Z,102300.88
2023-02-19T16:06:10.931Z,102311.09
2023-02-19T16:08:39.487Z,102307.56
2023-02-19T16:11:27.673Z,102316.13
2023-02-19T16:14:19.429Z,102329.94
2023-02-19T16:16:47.736Z,102330.75
2023-02-19T16:19:21.009Z,102325.50
2023-02-19T16:21:48.226Z,102333.19
2023-02-19T16:24:29.010Z,102327.53
2023-02-19T16:26:56.180Z,102327.84
2023-02-19T16:29:25.961Z,102332.56
2023-02-19T16:31:58.673Z,102330.53
2023-02-19T16:34:50.953Z,102336.03
2023-02-19T16:37:38.025Z,102327.47
2023-02-19T16:40:07.814Z,102336.94
2023-02-19T16:43:06.772Z,102330.28
2023-02-19T16:45:33.997Z,102340.03
2023-02-19T16:48:00.801Z,102337.41
2023-02-19T16:50:27.966Z,102335.72
2023-02-19T16:52:57.547Z,102332.97
2023-02-19T16:55:25.434Z,102354.31
2023-02-19T16:57:52.626Z,102344.53
2023-02-19T17:00:21.950Z,102346.53
2023-02-19T17:02:50.956Z,102361.38
2023-02-19T17:05:19.094Z,102362.84
2023-02-19T17:07:46.352Z,102363.31
2023-02-19T17:10:23.162Z,102368.34
2023-02-19T17:12:51.385Z,102367.16
2023-02-19T17:15:18.935Z,102375.72
2023-02-19T17:17:46.187Z,102382.56
2023-02-19T17:20:24.236Z,102382.94
2023-02-19T17:22:51.555Z,102383.91
2023-02-19T17:25:18.457Z,102375.09
2023-02-19T17:27:45.216Z,102369.00
2023-02-19T17:30:20.073Z,102376.00
2023-02-19T17:32:46.918Z,102377.84
2023-02-19T17:35:13.702Z,102369.84
2023-02-19T17:37:40.784Z,102378.53
2023-02-19T17:40:33.506Z,102381.59
2023-02-19T17:43:01.317Z,102396.94
2023-02-19T17:45:28.299Z,102392.09
2023-02-19T17:47:55.210Z,102390.06
2023-02-19T17:50:27.609Z,102394.50
2023-02-19T17:52:54.465Z,102392.53
2023-02-19T17:55:21.231Z,102392.06
2023-02-19T17:57:49.157Z,102391.56
2023-02-19T18:00:18.808Z,102415.47
2023-02-19T18:02:45.595Z,102413.31
2023-02-19T18:05:14.907Z,102418.84
2023-02-19T18:07:41.810Z,102415.50
2023-02-19T18:10:09.193Z,102422.47
2023-02-19T18:12:36.312Z,102421.09
2023-02-19T18:15:03.057Z,102414.50
2023-02-19T18:17:29.776Z,102413.53
2023-02-19T18:19:56.641Z,102413.56
2023-02-19T18:22:23.497Z,102404.38
2023-02-19T18:24:52.347Z,102393.63
2023-02-19T18:27:20.430Z,102385.16
2023-02-19T18:29:51.959Z,102391.13
2023-02-19T18:32:20.683Z,102396.72
2023-02-19T18:34:51.973Z,102393.88
2023-02-19T18:37:20.099Z,102388.66
2023-02-19T18:39:46.874Z,102381.78
2023-02-19T18:42:14.210Z,102381.28
2023-02-19T18:44:41.750Z,102382.50
2023-02-19T18:47:09.132Z,102384.25
2023-02-19T18:49:36.565Z,102397.81
2023-02-19T18:52:03.606Z,102401.63
2023-02-19T18:54:31.692Z,102393.22
2023-02-19T18:57:00.956Z,102394.09
2023-02-19T18:59:28.050Z,102404.63
2023-02-19T19:01:55.015Z,102417.97
2023-02-19T19:04:21.959Z,102415.63
2023-02-19T19:06:49.378Z,102406.81
2023-02-19T19:09:16.645Z,102416.25
2023-02-19T19:11:44.648Z,102403.31
2023-02-19T19:14:17.559Z,102402.34
2023-02-19T19:16:45.989Z,102389.13
2023-02-19T19:19:13.671Z,102394.75
2023-02-19T19:21:40.550Z,102406.97
2023-02-19T19:24:08.123Z,102415.28
2023-02-19T19:26:35.535Z,102413.94
2023-02-19T19:29:02.667Z,102412.50
2023-02-19T19:31:35.848Z,102407.78
2023-02-19T19:34:03.579Z,102400.59
2023-02-19T19:36:30.545Z,102418.84
2023-02-19T19:38:57.575Z,102410.59
2023-02-19T19:41:24.574Z,102407.66
2023-02-19T19:43:55.048Z,102403.97
2023-02-19T19:46:22.286Z,102398.38
2023-02-19T19:48:52.955Z,102408.19
2023-02-19T19:51:19.932Z,102410.91
2023-02-19T19:53:48.339Z,102396.47
2023-02-19T19:56:16.489Z,102400.06
2023-02-19T19:58:43.574Z,102396.13
2023-02-19T20:01:10.909Z,102393.22
2023-02-19T20:03:38.249Z,102396.22
2023-02-19T20:06:05.313Z,102391.84
2023-02-19T20:08:32.016Z,102397.00
2023-02-19T20:10:58.975Z,102404.44
2023-02-19T20:13:26.786Z,102398.66
2023-02-19T20:15:58.188Z,102410.41
2023-02-19T20:18:26.386Z,102410.22
2023-02-19T20:20:53.326Z,102408.78
2023-02-19T20:23:20.252Z,102411.34
2023-02-19T20:25:47.040Z,102402.28
2023-02-19T20:28:13.985Z,102405.63
2023-02-19T20:30:41.144Z,102412.13
2023-02-19T20:33:08.200Z,102414.66
2023-02-19T20:35:35.086Z,102400.81
2023-02-19T20:38:01.905Z,102416.47
2023-02-19T20:40:30.582Z,102410.59
2023-02-19T20:42:57.567Z,102418.44
2023-02-19T20:45:31.239Z,102420.34
2023-02-19T20:47:58.812Z,102428.72
2023-02-19T20:50:30.810Z,102412.25
2023-02-19T20:52:58.156Z,102414.94
2023-02-19T20:55:26.131Z,102425.44
2023-02-19T20:57:53.153Z,102412.78
2023-02-19T21:00:21.164Z,102421.41
2023-02-19T21:02:50.474Z,102416.50
2023-02-19T21:05:18.024Z,102417.09
2023-02-19T21:07:44.760Z,102414.84
2023-02-19T21:10:13.763Z,102404.31
2023-02-19T21:12:42.102Z,102415.72
2023-02-19T21:15:10.546Z,102422.94
2023-02-19T21:17:37.906Z,102421.91
2023-02-19T21:20:05.405Z,102420.50
2023-02-19T21:22:35.401Z,102404.84
2023-02-19T21:25:02.380Z,102404.06
2023-02-19T21:27:29.162Z,102402.72
2023-02-19T21:29:56.134Z,102405.72
2023-02-19T21:32:23.340Z,102407.88
2023-02-19T21:34:50.403Z,102399.25
2023-02-19T21:37:17.132Z,102406.00
2023-02-19T21:39:44.541Z,102404.66
2023-02-19T21:42:12.347Z,102400.88
2023-02-19T21:44:43.216Z,102398.94
2023-02-19T21:47:12.365Z,102404.91
2023-02-19T21:49:42.474Z,102401.38
2023-02-19T21:52:09.951Z,102411.34
2023-02-19T21:54:36.826Z,102409.22
2023-02-19T21:57:03.852Z,102414.34
2023-02-19T21:59:30.688Z,102398.69
2023-02-19T22:01:57.936Z,102399.75
2023-02-19T22:04:24.977Z,102393.56
2023-02-19T22:06:55.451Z,102399.44
2023-02-19T22:09:24.068Z,102406.63
2023-02-19T22:11:52.561Z,102405.34
2023-02-19T22:14:19.473Z,102403.22
2023-02-19T22:16:47.235Z,102415.94
2023-02-19T22:19:14.273Z,102410.84
2023-02-19T22:21:44.967Z,102417.53
2023-02-19T22:24:22.239Z,102408.03
2023-02-19T22:26:55.378Z,102411.56
2023-02-19T22:29:26.893Z,102396.44
2023-02-19T22:31:54.111Z,102388.66
2023-02-19T22:34:25.246Z,102383.72
2023-02-19T22:36:52.075Z,102387.16
2023-02-19T22:39:22.064Z,102385.00
2023-02-19T22:41:55.111Z,102389.06
2023-02-19T22:44:22.417Z,102389.31
2023-02-19T22:46:54.678Z,102391.50
2023-02-19T22:49:22.972Z,102395.31
2023-02-19T22:52:01.878Z,102400.72
2023-02-19T22:54:32.382Z,102386.34
2023-02-19T22:56:59.992Z,102385.81
2023-02-19T22:59:27.003Z,102392.53
2023-02-19T23:01:54.248Z,102386.50
2023-02-19T23:04:22.441Z,102396.84
2023-02-19T23:06:55.564Z,102381.31
2023-02-19T23:09:25.617Z,102376.09
2023-02-19T23:11:53.696Z,102388.19
2023-02-19T23:14:26.877Z,102384.38
2023-02-19T23:16:53.911Z,102371.47
2023-02-19T23:19:20.864Z,102378.38
2023-02-19T23:21:48.393Z,102386.91
2023-02-19T23:24:15.851Z,102375.91
2023-02-19T23:26:51.334Z,102377.47
2023-02-19T23:29:21.296Z,102366.25
2023-02-19T23:31:48.514Z,102361.47
2023-02-19T23:34:15.894Z,102363.44
2023-02-19T23:36:45.731Z,102367.97
2023-02-19T23:39:20.523Z,102352.88
2023-02-19T23:41:53.551Z,102344.03
2023-02-19T23:44:27.394Z,102361.22
2023-02-19T23:46:54.554Z,102353.06
2023-02-19T23:49:21.709Z,102350.31
2023-02-19T23:51:49.910Z,102353.22
2023-02-19T23:54:16.935Z,102338.25
2023-02-19T23:56:46.262Z,102347.13
2023-02-19T23:59:13.715Z,102347.06
